createdAt,value
2022-09-09T00:02:28.732Z,21.80
2022-09-09T00:05:45.558Z,21.79
2022-09-09T00:09:02.425Z,21.82
2022-09-09T00:12:24.133Z,21.72
2022-09-09T00:15:42.026Z,21.75
2022-09-09T00:19:04.795Z,21.78
2022-09-09T00:22:21.974Z,21.80
2022-09-09T00:25:38.690Z,21.81
2022-09-09T00:28:53.800Z,21.78
2022-09-09T00:32:01.310Z,21.78
2022-09-09T00:35:19.672Z,21.72
2022-09-09T00:38:42.597Z,21.72
2022-09-09T00:42:03.223Z,21.77
2022-09-09T00:45:10.996Z,21.77
2022-09-09T00:48:13.458Z,21.76
2022-09-09T00:51:32.112Z,21.71
2022-09-09T00:55:09.174Z,21.76
2022-09-09T00:58:11.266Z,21.75
2022-09-09T01:01:14.335Z,21.76
2022-09-09T01:04:30.197Z,21.71
2022-09-09T01:07:33.460Z,21.76
2022-09-09T01:11:04.584Z,21.75
2022-09-09T01:14:26.815Z,21.72
2022-09-09T01:17:36.764Z,21.74
2022-09-09T01:20:58.079Z,21.74
2022-09-09T01:24:17.883Z,21.74
2022-09-09T01:27:52.237Z,21.67
2022-09-09T01:30:56.170Z,21.69
2022-09-09T01:34:02.303Z,21.73
2022-09-09T01:37:08.451Z,21.73
2022-09-09T01:40:10.608Z,21.71
2022-09-09T01:43:14.341Z,21.72
2022-09-09T01:46:17.649Z,21.68
2022-09-09T01:49:19.912Z,21.72
2022-09-09T01:52:22.706Z,21.72
2022-09-09T01:55:38.623Z,21.73
2022-09-09T01:59:12.679Z,21.72
2022-09-09T02:02:43.313Z,21.72
2022-09-09T02:06:10.196Z,21.72
2022-09-09T02:09:14.175Z,21.63
2022-09-09T02:12:23.705Z,21.72
2022-09-09T02:15:55.794Z,21.71
2022-09-09T02:19:10.207Z,21.72
2022-09-09T02:22:25.413Z,21.70
2022-09-09T02:25:33.555Z,21.70
2022-09-09T02:28:45.779Z,21.70
2022-09-09T02:31:50.970Z,21.69
2022-09-09T02:35:02.051Z,21.68
2022-09-09T02:38:10.253Z,21.67
2022-09-09T02:41:13.009Z,21.65
2022-09-09T02:44:19.094Z,21.68
2022-09-09T02:47:30.962Z,21.69
2022-09-09T02:50:59.621Z,21.65
2022-09-09T02:54:18.112Z,21.69
2022-09-09T02:57:32.208Z,21.68
2022-09-09T03:00:37.058Z,21.65
2022-09-09T03:03:39.494Z,21.67
2022-09-09T03:06:45.923Z,21.68
2022-09-09T03:09:55.122Z,21.66
2022-09-09T03:12:59.314Z,21.63
2022-09-09T03:16:05.055Z,21.67
2022-09-09T03:19:10.829Z,21.66
2022-09-09T03:22:14.876Z,21.66
2022-09-09T03:25:19.567Z,21.59
2022-09-09T03:28:22.515Z,21.61
2022-09-09T03:31:26.706Z,21.64
2022-09-09T03:34:28.926Z,21.67
2022-09-09T03:37:33.881Z,21.63
2022-09-09T03:40:36.355Z,21.58
2022-09-09T03:43:38.776Z,21.69
2022-09-09T03:46:40.953Z,21.68
2022-09-09T03:49:43.010Z,21.67
2022-09-09T03:52:45.461Z,21.63
2022-09-09T03:55:56.354Z,21.69
2022-09-09T03:59:00.578Z,21.69
2022-09-09T04:02:03.902Z,21.67
2022-09-09T04:05:08.102Z,21.68
2022-09-09T04:08:10.223Z,21.72
2022-09-09T04:11:12.379Z,21.70
2022-09-09T04:14:14.729Z,21.72
2022-09-09T04:17:17.328Z,21.67
2022-09-09T04:20:20.537Z,21.69
2022-09-09T04:23:22.647Z,21.75
2022-09-09T04:26:25.144Z,21.70
2022-09-09T04:29:27.869Z,21.76
2022-09-09T04:32:30.051Z,21.78
2022-09-09T04:35:32.075Z,21.78
2022-09-09T04:38:34.181Z,21.79
2022-09-09T04:41:37.059Z,21.73
2022-09-09T04:44:40.431Z,21.79
2022-09-09T04:47:42.563Z,21.77
2022-09-09T04:50:44.762Z,21.75
2022-09-09T04:53:48.763Z,21.72
2022-09-09T04:56:52.428Z,21.78
2022-09-09T04:59:54.557Z,21.91
2022-09-09T05:02:57.097Z,22.05
2022-09-09T05:06:09.510Z,22.28
2022-09-09T05:12:30.382Z,22.39
2022-09-09T05:15:32.633Z,22.40
2022-09-09T05:18:34.835Z,22.34
2022-09-09T05:21:37.155Z,22.29
2022-09-09T05:24:39.848Z,22.26
2022-09-09T05:27:42.678Z,22.27
2022-09-09T05:30:44.808Z,22.24
2022-09-09T05:33:49.236Z,22.21
2022-09-09T05:36:53.159Z,22.19
2022-09-09T05:39:57.307Z,22.23
2022-09-09T05:43:01.436Z,22.23
2022-09-09T05:46:07.539Z,22.23
2022-09-09T05:49:09.722Z,22.20
2022-09-09T05:52:12.282Z,22.19
2022-09-09T05:55:14.958Z,21.62
2022-09-09T05:58:17.955Z,22.18
2022-09-09T06:01:23.085Z,22.09
2022-09-09T06:04:25.453Z,22.17
2022-09-09T06:07:27.482Z,22.14
2022-09-09T06:10:30.014Z,22.17
2022-09-09T06:13:32.751Z,22.19
2022-09-09T06:16:36.017Z,22.16
2022-09-09T06:19:38.354Z,22.18
2022-09-09T06:22:42.160Z,22.17
2022-09-09T06:25:44.414Z,22.18
2022-09-09T06:28:51.207Z,22.14
2022-09-09T06:31:53.333Z,22.18
2022-09-09T06:34:57.683Z,22.25
2022-09-09T06:38:00.518Z,22.22
2022-09-09T06:41:02.977Z,22.21
2022-09-09T06:44:05.839Z,22.17
2022-09-09T06:47:15.138Z,22.11
2022-09-09T06:50:19.252Z,22.29
2022-09-09T06:53:23.234Z,22.38
2022-09-09T06:56:29.854Z,22.28
2022-09-09T06:59:33.749Z,22.29
2022-09-09T07:02:40.230Z,22.45
2022-09-09T07:05:43.381Z,22.49
2022-09-09T07:08:56.283Z,22.46
2022-09-09T07:12:02.002Z,22.59
2022-09-09T07:15:09.736Z,22.62
2022-09-09T07:18:11.821Z,22.67
2022-09-09T07:21:15.549Z,22.66
2022-09-09T07:24:18.300Z,22.80
2022-09-09T07:27:22.292Z,22.92
2022-09-09T07:30:27.817Z,22.98
2022-09-09T07:33:34.426Z,23.03
2022-09-09T07:36:39.268Z,23.20
2022-09-09T07:39:43.416Z,23.27
2022-09-09T07:42:45.615Z,23.27
2022-09-09T07:45:48.216Z,23.29
2022-09-09T07:48:57.780Z,23.33
2022-09-09T07:52:04.581Z,23.30
2022-09-09T07:55:07.627Z,23.32
2022-09-09T07:58:09.712Z,23.42
2022-09-09T08:01:19.092Z,23.47
2022-09-09T08:04:22.868Z,23.45
2022-09-09T08:07:26.235Z,23.43
2022-09-09T08:10:30.319Z,23.55
2022-09-09T08:13:34.952Z,23.65
2022-09-09T08:16:43.015Z,23.73
2022-09-09T08:19:46.835Z,23.76
2022-09-09T08:22:53.923Z,23.74
2022-09-09T08:25:56.002Z,23.76
2022-09-09T08:29:00.135Z,23.82
2022-09-09T08:32:03.495Z,23.83
2022-09-09T08:35:08.420Z,23.79
2022-09-09T08:38:11.254Z,23.88
2022-09-09T08:41:35.912Z,23.90
2022-09-09T08:44:49.031Z,23.90
2022-09-09T08:47:56.259Z,23.94
2022-09-09T08:51:03.243Z,23.93
2022-09-09T08:54:11.178Z,24.01
2022-09-09T08:57:22.845Z,24.03
2022-09-09T09:00:34.205Z,24.13
2022-09-09T09:03:48.667Z,24.19
2022-09-09T09:07:15.210Z,24.27
2022-09-09T09:10:44.287Z,24.34
2022-09-09T09:14:03.919Z,24.33
2022-09-09T09:17:14.048Z,24.32
2022-09-09T09:20:17.546Z,24.25
2022-09-09T09:23:25.245Z,24.34
2022-09-09T09:26:36.233Z,24.26
2022-09-09T09:30:10.610Z,24.34
2022-09-09T09:33:41.931Z,24.32
2022-09-09T09:36:48.182Z,24.26
2022-09-09T09:40:08.529Z,24.20
2022-09-09T09:43:23.019Z,24.13
2022-09-09T09:46:26.956Z,24.09
2022-09-09T09:49:34.136Z,24.12
2022-09-09T09:52:37.921Z,23.98
2022-09-09T09:55:52.577Z,24.05
2022-09-09T09:58:56.037Z,24.02
2022-09-09T10:02:26.811Z,24.09
2022-09-09T10:05:37.410Z,24.08
2022-09-09T10:08:50.480Z,24.03
2022-09-09T10:12:16.906Z,24.02
2022-09-09T10:15:45.721Z,24.01
2022-09-09T10:19:02.879Z,23.99
2022-09-09T10:22:31.470Z,23.99
2022-09-09T10:25:59.811Z,23.96
2022-09-09T10:29:22.404Z,23.92
2022-09-09T10:32:27.509Z,23.90
2022-09-09T10:35:37.974Z,23.89
2022-09-09T10:38:44.611Z,23.84
2022-09-09T10:42:03.435Z,23.64
2022-09-09T10:45:44.023Z,23.79
2022-09-09T10:48:57.975Z,23.77
2022-09-09T10:52:16.409Z,23.66
2022-09-09T10:55:23.140Z,23.67
2022-09-09T10:58:50.446Z,23.71
2022-09-09T11:02:02.750Z,23.67
2022-09-09T11:05:21.319Z,23.63
2022-09-09T11:08:27.379Z,23.65
2022-09-09T11:11:52.791Z,23.58
2022-09-09T11:15:08.441Z,23.62
2022-09-09T11:18:20.488Z,23.61
2022-09-09T11:21:45.897Z,23.62
2022-09-09T11:24:56.045Z,23.60
2022-09-09T11:28:20.459Z,23.66
2022-09-09T11:31:32.375Z,23.72
2022-09-09T11:34:57.809Z,23.75
2022-09-09T11:38:46.321Z,23.72
2022-09-09T11:41:48.336Z,23.82
2022-09-09T11:44:50.827Z,23.84
2022-09-09T11:47:55.869Z,23.86
2022-09-09T11:51:10.999Z,23.83
2022-09-09T11:54:49.360Z,23.86
2022-09-09T11:58:16.505Z,23.84
2022-09-09T12:01:44.033Z,23.84
2022-09-09T12:04:57.349Z,23.81
2022-09-09T12:08:01.740Z,23.74
2022-09-09T12:11:06.598Z,23.77
2022-09-09T12:14:40.025Z,23.82
2022-09-09T12:17:46.114Z,23.87
2022-09-09T12:21:03.759Z,23.87
2022-09-09T12:24:14.243Z,23.87
2022-09-09T12:27:29.805Z,23.87
2022-09-09T12:30:57.339Z,23.87
2022-09-09T12:34:20.196Z,23.84
2022-09-09T12:37:40.919Z,23.85
2022-09-09T12:40:42.940Z,23.80
2022-09-09T12:43:44.997Z,23.83
2022-09-09T12:46:47.743Z,23.83
2022-09-09T12:49:51.171Z,23.86
2022-09-09T12:52:56.636Z,23.88
2022-09-09T12:56:04.487Z,23.90
2022-09-09T12:59:06.574Z,23.88
2022-09-09T13:02:29.177Z,23.89
2022-09-09T13:05:42.863Z,23.90
2022-09-09T13:08:45.224Z,23.85
2022-09-09T13:11:54.221Z,23.81
2022-09-09T13:14:58.002Z,23.73
2022-09-09T13:18:06.251Z,23.84
2022-09-09T13:21:08.711Z,23.79
2022-09-09T13:24:34.108Z,23.86
2022-09-09T13:27:41.500Z,23.86
2022-09-09T13:30:45.218Z,23.86
2022-09-09T13:33:47.469Z,23.82
2022-09-09T13:36:50.365Z,23.83
2022-09-09T13:39:54.468Z,23.86
2022-09-09T13:42:59.115Z,23.81
2022-09-09T13:46:07.427Z,23.79
2022-09-09T13:49:12.410Z,23.73
2022-09-09T13:52:18.015Z,23.72
2022-09-09T13:55:25.670Z,23.69
2022-09-09T13:58:28.468Z,23.64
2022-09-09T14:01:31.153Z,23.56
2022-09-09T14:04:33.430Z,23.57
2022-09-09T14:07:35.580Z,23.59
2022-09-09T14:10:38.202Z,23.52
2022-09-09T14:13:40.370Z,23.43
2022-09-09T14:16:42.667Z,23.50
2022-09-09T14:19:46.253Z,23.32
2022-09-09T14:22:48.527Z,23.47
2022-09-09T14:25:50.545Z,23.44
2022-09-09T14:28:55.963Z,23.37
2022-09-09T14:31:58.278Z,23.40
2022-09-09T14:35:00.485Z,23.43
2022-09-09T14:38:02.529Z,23.34
2022-09-09T14:41:04.568Z,23.38
2022-09-09T14:44:06.667Z,23.38
2022-09-09T14:47:09.695Z,23.29
2022-09-09T14:50:13.582Z,23.30
2022-09-09T14:53:18.135Z,23.28
2022-09-09T14:56:23.270Z,23.26
2022-09-09T14:59:25.453Z,23.24
2022-09-09T15:02:28.345Z,23.23
2022-09-09T15:05:31.061Z,23.22
2022-09-09T15:08:33.317Z,23.18
2022-09-09T15:11:40.656Z,23.17
2022-09-09T15:14:42.708Z,23.06
2022-09-09T15:17:44.761Z,23.09
2022-09-09T15:20:48.903Z,23.11
2022-09-09T15:23:52.410Z,23.11
2022-09-09T15:26:55.207Z,23.04
2022-09-09T15:29:59.223Z,23.01
2022-09-09T15:33:01.688Z,23.02
2022-09-09T15:36:14.744Z,23.03
2022-09-09T15:39:18.694Z,23.03
2022-09-09T15:42:20.691Z,23.01
2022-09-09T15:45:22.976Z,23.00
2022-09-09T15:48:33.876Z,22.96
2022-09-09T15:51:44.739Z,22.93
2022-09-09T15:54:46.954Z,22.95
2022-09-09T15:57:49.819Z,22.90
2022-09-09T16:00:52.564Z,22.89
2022-09-09T16:03:55.274Z,22.81
2022-09-09T16:07:04.200Z,22.79
2022-09-09T16:10:07.195Z,22.82
2022-09-09T16:13:09.822Z,22.83
2022-09-09T16:16:13.437Z,22.81
2022-09-09T16:19:15.797Z,22.79
2022-09-09T16:22:19.420Z,22.76
2022-09-09T16:25:22.311Z,22.76
2022-09-09T16:28:24.456Z,22.64
2022-09-09T16:31:27.986Z,22.73
2022-09-09T16:34:30.911Z,22.71
2022-09-09T16:37:35.184Z,22.66
2022-09-09T16:40:38.500Z,22.63
2022-09-09T16:43:41.963Z,22.69
2022-09-09T16:46:49.932Z,22.66
2022-09-09T16:49:52.421Z,22.60
2022-09-09T16:52:54.525Z,22.64
2022-09-09T16:55:56.597Z,22.55
2022-09-09T16:59:00.865Z,22.63
2022-09-09T17:02:05.341Z,22.62
2022-09-09T17:05:07.814Z,22.62
2022-09-09T17:08:10.429Z,22.61
2022-09-09T17:11:17.281Z,22.62
2022-09-09T17:14:23.675Z,22.61
2022-09-09T17:17:32.021Z,22.54
2022-09-09T17:20:46.400Z,22.52
2022-09-09T17:23:50.709Z,22.49
2022-09-09T17:26:53.119Z,22.37
2022-09-09T17:29:55.510Z,22.44
2022-09-09T17:32:57.544Z,22.40
2022-09-09T17:36:00.206Z,22.38
2022-09-09T17:39:04.062Z,22.63
2022-09-09T17:42:08.610Z,22.77
2022-09-09T17:45:11.161Z,23.06
2022-09-09T17:48:13.470Z,23.31
2022-09-09T17:51:20.477Z,23.46
2022-09-09T17:54:22.854Z,23.56
2022-09-09T17:57:26.238Z,23.79
2022-09-09T18:00:31.483Z,24.04
2022-09-09T18:03:37.106Z,23.94
2022-09-09T18:06:41.851Z,23.94
2022-09-09T18:09:44.076Z,23.88
2022-09-09T18:12:46.245Z,24.00
2022-09-09T18:15:49.887Z,24.30
2022-09-09T18:18:52.958Z,24.71
2022-09-09T18:21:57.546Z,25.08
2022-09-09T18:25:02.609Z,24.71
2022-09-09T18:28:04.769Z,24.13
2022-09-09T18:31:12.681Z,23.54
2022-09-09T18:34:18.031Z,23.06
2022-09-09T18:37:20.460Z,22.68
2022-09-09T18:40:22.576Z,22.41
2022-09-09T18:43:24.742Z,22.32
2022-09-09T18:46:30.926Z,22.33
2022-09-09T18:49:33.428Z,22.38
2022-09-09T18:52:35.871Z,22.41
2022-09-09T18:55:38.006Z,22.53
2022-09-09T18:58:40.609Z,22.47
2022-09-09T19:01:42.890Z,22.47
2022-09-09T19:04:45.134Z,22.54
2022-09-09T19:07:47.269Z,22.48
2022-09-09T19:10:49.380Z,22.58
2022-09-09T19:13:53.801Z,22.58
2022-09-09T19:16:56.699Z,22.60
2022-09-09T19:19:58.793Z,22.49
2022-09-09T19:23:00.811Z,22.54
2022-09-09T19:26:03.715Z,22.51
2022-09-09T19:29:05.903Z,22.55
2022-09-09T19:35:31.483Z,22.57
2022-09-09T19:38:34.451Z,22.59
2022-09-09T19:41:37.175Z,22.60
2022-09-09T19:44:39.845Z,22.62
2022-09-09T19:47:43.013Z,22.62
2022-09-09T19:50:45.081Z,22.60
2022-09-09T19:53:53.677Z,22.58
2022-09-09T19:56:55.731Z,22.39
2022-09-09T19:59:57.799Z,22.56
2022-09-09T20:03:18.144Z,22.51
2022-09-09T20:06:24.272Z,22.54
2022-09-09T20:09:29.165Z,22.48
2022-09-09T20:12:31.252Z,22.42
2022-09-09T20:15:33.442Z,22.47
2022-09-09T20:18:38.572Z,22.46
2022-09-09T20:21:47.611Z,22.50
2022-09-09T20:24:50.085Z,22.52
2022-09-09T20:27:53.135Z,22.45
2022-09-09T20:30:55.718Z,22.49
2022-09-09T20:33:58.491Z,22.50
2022-09-09T20:37:02.808Z,22.47
2022-09-09T20:40:05.271Z,22.46
2022-09-09T20:43:07.340Z,22.44
2022-09-09T20:46:10.055Z,22.45
2022-09-09T20:49:12.258Z,22.45
2022-09-09T20:52:15.335Z,22.40
2022-09-09T20:55:17.334Z,22.35
2022-09-09T20:58:19.335Z,22.45
2022-09-09T21:01:22.040Z,22.37
2022-09-09T21:04:25.225Z,22.37
2022-09-09T21:07:29.101Z,22.42
2022-09-09T21:10:31.489Z,22.43
2022-09-09T21:13:37.151Z,22.42
2022-09-09T21:16:39.318Z,22.35
2022-09-09T21:19:41.390Z,22.38
2022-09-09T21:22:43.329Z,22.36
2022-09-09T21:25:45.739Z,22.35
2022-09-09T21:28:47.826Z,22.38
2022-09-09T21:31:49.914Z,22.38
2022-09-09T21:34:52.079Z,22.42
2022-09-09T21:37:54.474Z,22.37
2022-09-09T21:40:56.490Z,22.36
2022-09-09T21:43:59.041Z,22.39
2022-09-09T21:47:01.101Z,22.39
2022-09-09T21:50:03.225Z,22.36
2022-09-09T21:53:06.099Z,22.34
2022-09-09T21:56:11.840Z,22.37
2022-09-09T21:59:13.847Z,22.35
2022-09-09T22:02:17.155Z,22.38
2022-09-09T22:05:19.255Z,22.34
2022-09-09T22:08:21.821Z,22.30
2022-09-09T22:11:24.408Z,22.30
2022-09-09T22:14:27.539Z,22.35
2022-09-09T22:17:30.318Z,22.34
2022-09-09T22:20:33.983Z,22.38
2022-09-09T22:23:36.827Z,22.37
2022-09-09T22:26:39.438Z,22.32
2022-09-09T22:29:41.880Z,22.34
2022-09-09T22:32:44.117Z,22.30
2022-09-09T22:35:46.172Z,22.31
2022-09-09T22:38:49.715Z,22.28
2022-09-09T22:41:51.783Z,22.29
2022-09-09T22:44:53.819Z,22.27
2022-09-09T22:47:57.292Z,22.30
2022-09-09T22:51:11.384Z,22.33
2022-09-09T22:54:13.565Z,22.22
2022-09-09T22:57:15.618Z,22.31
2022-09-09T23:00:18.569Z,22.34
2022-09-09T23:03:22.643Z,22.37
2022-09-09T23:06:27.509Z,22.36
2022-09-09T23:09:29.557Z,22.37
2022-09-09T23:12:31.739Z,22.37
2022-09-09T23:15:33.783Z,22.37
2022-09-09T23:18:37.256Z,22.29
2022-09-09T23:21:41.215Z,22.38
2022-09-09T23:24:43.394Z,22.41
2022-09-09T23:27:45.847Z,22.42
2022-09-09T23:30:47.977Z,22.35
2022-09-09T23:33:50.079Z,22.32
2022-09-09T23:36:53.741Z,22.38
2022-09-09T23:39:55.772Z,22.40
2022-09-09T23:42:57.825Z,22.32
2022-09-09T23:46:01.430Z,22.38
2022-09-09T23:49:04.580Z,22.32
2022-09-09T23:52:07.110Z,22.34
2022-09-09T23:55:09.450Z,22.38
2022-09-09T23:58:11.637Z,22.33
